sensor_id;sensor_type;location;lat;lon;timestamp;P1;durP1;ratioP1;P2;durP2;ratioP2
82000;SDS011;71510;50.558;7.258;2023-09-19T00:00:48;3.53;;;1.60;;
82000;SDS011;71510;50.558;7.258;2023-09-19T00:03:16;3.67;;;1.80;;
82000;SDS011;71510;50.558;7.258;2023-09-19T00:05:43;3.77;;;1.37;;
82000;SDS011;71510;50.558;7.258;2023-09-19T00:08:10;4.80;;;1.60;;
82000;SDS011;71510;50.558;7.258;2023-09-19T00:10:39;3.10;;;1.62;;
82000;SDS011;71510;50.558;7.258;2023-09-19T00:13:08;3.20;;;1.70;;
82000;SDS011;71510;50.558;7.258;2023-09-19T00:15:39;8.95;;;1.75;;
82000;SDS011;71510;50.558;7.258;2023-09-19T00:18:07;3.98;;;1.52;;
82000;SDS011;71510;50.558;7.258;2023-09-19T00:20:38;6.40;;;1.47;;
82000;SDS011;71510;50.558;7.258;2023-09-19T00:23:05;4.90;;;2.05;;
82000;SDS011;71510;50.558;7.258;2023-09-19T00:25:35;4.72;;;2.10;;
82000;SDS011;71510;50.558;7.258;2023-09-19T00:28:03;4.72;;;1.80;;
82000;SDS011;71510;50.558;7.258;2023-09-19T00:30:31;4.60;;;1.47;;
82000;SDS011;71510;50.558;7.258;2023-09-19T00:32:59;7.20;;;1.77;;
82000;SDS011;71510;50.558;7.258;2023-09-19T00:35:27;3.35;;;1.92;;
82000;SDS011;71510;50.558;7.258;2023-09-19T00:37:55;3.70;;;1.82;;
82000;SDS011;71510;50.558;7.258;2023-09-19T00:40:22;5.15;;;2.05;;
82000;SDS011;71510;50.558;7.258;2023-09-19T00:42:50;4.90;;;1.65;;
82000;SDS011;71510;50.558;7.258;2023-09-19T00:45:17;9.28;;;1.82;;
82000;SDS011;71510;50.558;7.258;2023-09-19T00:47:47;6.62;;;1.95;;
82000;SDS011;71510;50.558;7.258;2023-09-19T00:50:19;4.65;;;1.92;;
82000;SDS011;71510;50.558;7.258;2023-09-19T00:52:47;6.60;;;2.08;;
82000;SDS011;71510;50.558;7.258;2023-09-19T00:55:16;5.15;;;1.95;;
82000;SDS011;71510;50.558;7.258;2023-09-19T00:57:47;10.05;;;2.47;;
82000;SDS011;71510;50.558;7.258;2023-09-19T01:00:16;5.20;;;1.82;;
82000;SDS011;71510;50.558;7.258;2023-09-19T01:05:13;6.65;;;2.42;;
82000;SDS011;71510;50.558;7.258;2023-09-19T01:07:41;11.20;;;3.45;;
82000;SDS011;71510;50.558;7.258;2023-09-19T01:10:16;4.50;;;2.22;;
82000;SDS011;71510;50.558;7.258;2023-09-19T01:18:16;4.12;;;2.25;;
82000;SDS011;71510;50.558;7.258;2023-09-19T01:20:45;7.00;;;2.45;;
82000;SDS011;71510;50.558;7.258;2023-09-19T01:23:24;13.48;;;3.30;;
82000;SDS011;71510;50.558;7.258;2023-09-19T01:25:48;4.72;;;2.42;;
82000;SDS011;71510;50.558;7.258;2023-09-19T01:28:21;8.58;;;2.85;;
82000;SDS011;71510;50.558;7.258;2023-09-19T01:30:49;5.45;;;2.00;;
82000;SDS011;71510;50.558;7.258;2023-09-19T01:33:19;6.12;;;1.72;;
82000;SDS011;71510;50.558;7.258;2023-09-19T01:35:46;6.72;;;2.62;;
82000;SDS011;71510;50.558;7.258;2023-09-19T01:38:15;4.35;;;2.05;;
82000;SDS011;71510;50.558;7.258;2023-09-19T01:40:48;8.65;;;2.80;;
82000;SDS011;71510;50.558;7.258;2023-09-19T01:43:31;4.30;;;1.77;;
82000;SDS011;71510;50.558;7.258;2023-09-19T01:46:04;7.28;;;2.12;;
82000;SDS011;71510;50.558;7.258;2023-09-19T01:51:11;9.93;;;2.72;;
82000;SDS011;71510;50.558;7.258;2023-09-19T01:53:56;5.65;;;1.60;;
82000;SDS011;71510;50.558;7.258;2023-09-19T01:56:34;3.60;;;1.50;;
82000;SDS011;71510;50.558;7.258;2023-09-19T01:59:13;6.70;;;2.08;;
82000;SDS011;71510;50.558;7.258;2023-09-19T02:01:40;3.12;;;1.40;;
82000;SDS011;71510;50.558;7.258;2023-09-19T02:04:11;5.42;;;1.67;;
82000;SDS011;71510;50.558;7.258;2023-09-19T02:06:41;4.05;;;1.30;;
82000;SDS011;71510;50.558;7.258;2023-09-19T02:09:09;4.80;;;1.60;;
82000;SDS011;71510;50.558;7.258;2023-09-19T02:11:36;6.05;;;1.30;;
82000;SDS011;71510;50.558;7.258;2023-09-19T02:14:03;8.60;;;1.92;;
82000;SDS011;71510;50.558;7.258;2023-09-19T02:16:32;6.65;;;1.70;;
82000;SDS011;71510;50.558;7.258;2023-09-19T02:19:00;6.62;;;1.62;;
82000;SDS011;71510;50.558;7.258;2023-09-19T02:21:29;4.55;;;1.35;;
82000;SDS011;71510;50.558;7.258;2023-09-19T02:23:57;2.72;;;1.07;;
82000;SDS011;71510;50.558;7.258;2023-09-19T02:26:25;5.97;;;1.95;;
82000;SDS011;71510;50.558;7.258;2023-09-19T02:28:53;7.95;;;1.70;;
82000;SDS011;71510;50.558;7.258;2023-09-19T02:31:21;6.12;;;1.57;;
82000;SDS011;71510;50.558;7.258;2023-09-19T02:33:49;6.25;;;1.45;;
82000;SDS011;71510;50.558;7.258;2023-09-19T02:36:16;7.72;;;1.70;;
82000;SDS011;71510;50.558;7.258;2023-09-19T02:38:43;10.55;;;2.12;;
82000;SDS011;71510;50.558;7.258;2023-09-19T02:41:10;8.25;;;1.95;;
82000;SDS011;71510;50.558;7.258;2023-09-19T02:43:38;4.00;;;1.15;;
82000;SDS011;71510;50.558;7.258;2023-09-19T02:46:05;7.72;;;2.02;;
82000;SDS011;71510;50.558;7.258;2023-09-19T02:48:32;9.63;;;2.10;;
82000;SDS011;71510;50.558;7.258;2023-09-19T02:51:01;5.97;;;1.45;;
82000;SDS011;71510;50.558;7.258;2023-09-19T02:53:30;6.37;;;2.00;;
82000;SDS011;71510;50.558;7.258;2023-09-19T02:55:58;6.92;;;2.00;;
82000;SDS011;71510;50.558;7.258;2023-09-19T02:58:25;5.58;;;1.45;;
82000;SDS011;71510;50.558;7.258;2023-09-19T03:00:54;7.62;;;2.37;;
82000;SDS011;71510;50.558;7.258;2023-09-19T03:03:21;9.83;;;1.72;;
82000;SDS011;71510;50.558;7.258;2023-09-19T03:05:49;7.15;;;1.82;;
82000;SDS011;71510;50.558;7.258;2023-09-19T03:08:17;8.85;;;2.10;;
82000;SDS011;71510;50.558;7.258;2023-09-19T03:10:49;6.40;;;1.80;;
82000;SDS011;71510;50.558;7.258;2023-09-19T03:13:15;6.08;;;2.15;;
82000;SDS011;71510;50.558;7.258;2023-09-19T03:15:42;8.83;;;1.47;;
82000;SDS011;71510;50.558;7.258;2023-09-19T03:18:13;6.58;;;1.75;;
82000;SDS011;71510;50.558;7.258;2023-09-19T03:20:40;6.20;;;2.10;;
82000;SDS011;71510;50.558;7.258;2023-09-19T03:23:08;9.10;;;2.58;;
82000;SDS011;71510;50.558;7.258;2023-09-19T03:25:36;8.95;;;1.80;;
82000;SDS011;71510;50.558;7.258;2023-09-19T03:28:03;5.62;;;1.90;;
82000;SDS011;71510;50.558;7.258;2023-09-19T03:30:33;7.33;;;1.72;;
82000;SDS011;71510;50.558;7.258;2023-09-19T03:33:01;7.90;;;1.82;;
82000;SDS011;71510;50.558;7.258;2023-09-19T03:35:28;8.43;;;2.05;;
82000;SDS011;71510;50.558;7.258;2023-09-19T03:37:55;5.92;;;2.22;;
82000;SDS011;71510;50.558;7.258;2023-09-19T03:40:23;7.00;;;1.90;;
82000;SDS011;71510;50.558;7.258;2023-09-19T03:42:51;12.85;;;1.80;;
82000;SDS011;71510;50.558;7.258;2023-09-19T03:45:19;8.15;;;1.77;;
82000;SDS011;71510;50.558;7.258;2023-09-19T03:47:46;11.48;;;2.15;;
82000;SDS011;71510;50.558;7.258;2023-09-19T03:50:16;7.20;;;2.60;;
82000;SDS011;71510;50.558;7.258;2023-09-19T03:52:44;6.87;;;1.77;;
82000;SDS011;71510;50.558;7.258;2023-09-19T03:55:11;8.53;;;1.95;;
82000;SDS011;71510;50.558;7.258;2023-09-19T03:57:38;10.15;;;1.92;;
82000;SDS011;71510;50.558;7.258;2023-09-19T04:00:06;8.90;;;1.80;;
82000;SDS011;71510;50.558;7.258;2023-09-19T04:02:38;9.28;;;2.60;;
82000;SDS011;71510;50.558;7.258;2023-09-19T04:05:06;5.35;;;1.80;;
82000;SDS011;71510;50.558;7.258;2023-09-19T04:07:33;5.37;;;1.92;;
82000;SDS011;71510;50.558;7.258;2023-09-19T04:10:00;12.05;;;2.60;;
82000;SDS011;71510;50.558;7.258;2023-09-19T04:12:28;9.45;;;2.30;;
82000;SDS011;71510;50.558;7.258;2023-09-19T04:14:55;15.20;;;2.60;;
82000;SDS011;71510;50.558;7.258;2023-09-19T04:17:22;8.45;;;2.40;;
82000;SDS011;71510;50.558;7.258;2023-09-19T04:19:49;7.05;;;1.87;;
82000;SDS011;71510;50.558;7.258;2023-09-19T04:22:17;10.63;;;2.22;;
82000;SDS011;71510;50.558;7.258;2023-09-19T04:24:44;9.15;;;2.45;;
82000;SDS011;71510;50.558;7.258;2023-09-19T04:27:11;6.72;;;2.08;;
82000;SDS011;71510;50.558;7.258;2023-09-19T04:29:40;12.20;;;2.50;;
82000;SDS011;71510;50.558;7.258;2023-09-19T04:32:08;14.78;;;2.00;;
82000;SDS011;71510;50.558;7.258;2023-09-19T04:34:36;12.60;;;1.82;;
82000;SDS011;71510;50.558;7.258;2023-09-19T04:37:05;12.95;;;2.47;;
82000;SDS011;71510;50.558;7.258;2023-09-19T04:39:32;15.15;;;2.27;;
82000;SDS011;71510;50.558;7.258;2023-09-19T04:42:00;6.62;;;1.87;;
82000;SDS011;71510;50.558;7.258;2023-09-19T04:44:27;11.00;;;2.55;;
82000;SDS011;71510;50.558;7.258;2023-09-19T04:46:54;8.98;;;2.72;;
82000;SDS011;71510;50.558;7.258;2023-09-19T04:49:22;9.28;;;2.90;;
82000;SDS011;71510;50.558;7.258;2023-09-19T04:51:49;8.00;;;2.08;;
82000;SDS011;71510;50.558;7.258;2023-09-19T04:54:16;9.10;;;2.40;;
82000;SDS011;71510;50.558;7.258;2023-09-19T04:56:44;12.10;;;2.67;;
82000;SDS011;71510;50.558;7.258;2023-09-19T04:59:11;9.85;;;2.40;;
82000;SDS011;71510;50.558;7.258;2023-09-19T05:01:39;9.60;;;2.70;;
82000;SDS011;71510;50.558;7.258;2023-09-19T05:04:06;4.40;;;1.90;;
82000;SDS011;71510;50.558;7.258;2023-09-19T05:06:34;12.25;;;2.87;;
82000;SDS011;71510;50.558;7.258;2023-09-19T05:09:02;14.70;;;2.65;;
82000;SDS011;71510;50.558;7.258;2023-09-19T05:11:30;15.93;;;3.12;;
82000;SDS011;71510;50.558;7.258;2023-09-19T05:13:58;11.75;;;3.05;;
82000;SDS011;71510;50.558;7.258;2023-09-19T05:16:28;19.98;;;3.17;;
82000;SDS011;71510;50.558;7.258;2023-09-19T05:18:56;11.45;;;2.67;;
82000;SDS011;71510;50.558;7.258;2023-09-19T05:21:24;15.72;;;2.55;;
82000;SDS011;71510;50.558;7.258;2023-09-19T05:23:53;13.72;;;2.83;;
82000;SDS011;71510;50.558;7.258;2023-09-19T05:26:20;16.23;;;3.45;;
82000;SDS011;71510;50.558;7.258;2023-09-19T05:28:48;18.40;;;3.58;;
82000;SDS011;71510;50.558;7.258;2023-09-19T05:31:15;18.02;;;3.87;;
82000;SDS011;71510;50.558;7.258;2023-09-19T05:33:43;16.12;;;3.02;;
82000;SDS011;71510;50.558;7.258;2023-09-19T05:36:10;22.13;;;3.75;;
82000;SDS011;71510;50.558;7.258;2023-09-19T05:38:38;18.65;;;4.05;;
82000;SDS011;71510;50.558;7.258;2023-09-19T05:41:07;14.63;;;2.85;;
82000;SDS011;71510;50.558;7.258;2023-09-19T05:43:36;11.35;;;2.47;;
82000;SDS011;71510;50.558;7.258;2023-09-19T05:46:03;13.53;;;3.22;;
82000;SDS011;71510;50.558;7.258;2023-09-19T05:48:30;15.55;;;2.50;;
82000;SDS011;71510;50.558;7.258;2023-09-19T05:50:58;14.83;;;2.62;;
82000;SDS011;71510;50.558;7.258;2023-09-19T05:53:27;10.40;;;2.45;;
82000;SDS011;71510;50.558;7.258;2023-09-19T05:55:56;14.65;;;3.00;;
82000;SDS011;71510;50.558;7.258;2023-09-19T05:58:23;10.65;;;2.30;;
82000;SDS011;71510;50.558;7.258;2023-09-19T06:00:50;9.08;;;2.40;;
82000;SDS011;71510;50.558;7.258;2023-09-19T06:03:18;11.50;;;2.60;;
82000;SDS011;71510;50.558;7.258;2023-09-19T06:05:46;11.12;;;2.75;;
82000;SDS011;71510;50.558;7.258;2023-09-19T06:08:15;15.23;;;3.15;;
82000;SDS011;71510;50.558;7.258;2023-09-19T06:10:42;14.78;;;3.47;;
82000;SDS011;71510;50.558;7.258;2023-09-19T06:13:10;9.85;;;2.37;;
82000;SDS011;71510;50.558;7.258;2023-09-19T06:15:37;13.00;;;2.25;;
82000;SDS011;71510;50.558;7.258;2023-09-19T06:18:05;21.87;;;3.42;;
82000;SDS011;71510;50.558;7.258;2023-09-19T06:20:34;12.88;;;3.02;;
82000;SDS011;71510;50.558;7.258;2023-09-19T06:23:02;11.93;;;2.83;;
82000;SDS011;71510;50.558;7.258;2023-09-19T06:25:30;10.70;;;2.85;;
82000;SDS011;71510;50.558;7.258;2023-09-19T06:27:57;7.70;;;2.42;;
82000;SDS011;71510;50.558;7.258;2023-09-19T06:30:25;8.93;;;2.52;;
82000;SDS011;71510;50.558;7.258;2023-09-19T06:32:56;8.25;;;3.25;;
82000;SDS011;71510;50.558;7.258;2023-09-19T06:37:50;10.55;;;2.00;;
82000;SDS011;71510;50.558;7.258;2023-09-19T06:40:17;10.23;;;2.50;;
82000;SDS011;71510;50.558;7.258;2023-09-19T06:42:46;13.90;;;3.45;;
82000;SDS011;71510;50.558;7.258;2023-09-19T06:45:14;9.33;;;3.05;;
82000;SDS011;71510;50.558;7.258;2023-09-19T06:50:12;11.48;;;3.40;;
82000;SDS011;71510;50.558;7.258;2023-09-19T06:52:44;11.85;;;2.72;;
82000;SDS011;71510;50.558;7.258;2023-09-19T06:55:13;17.90;;;3.62;;
82000;SDS011;71510;50.558;7.258;2023-09-19T06:57:42;13.60;;;2.62;;
82000;SDS011;71510;50.558;7.258;2023-09-19T07:00:10;13.05;;;2.83;;
82000;SDS011;71510;50.558;7.258;2023-09-19T07:03:01;8.57;;;2.20;;
82000;SDS011;71510;50.558;7.258;2023-09-19T07:05:30;15.15;;;3.27;;
82000;SDS011;71510;50.558;7.258;2023-09-19T07:07:58;17.60;;;3.83;;
82000;SDS011;71510;50.558;7.258;2023-09-19T07:10:27;16.05;;;3.00;;
82000;SDS011;71510;50.558;7.258;2023-09-19T07:12:55;9.10;;;2.60;;
82000;SDS011;71510;50.558;7.258;2023-09-19T07:15:24;13.88;;;2.58;;
82000;SDS011;71510;50.558;7.258;2023-09-19T07:17:54;12.98;;;3.42;;
82000;SDS011;71510;50.558;7.258;2023-09-19T07:20:23;11.88;;;2.72;;
82000;SDS011;71510;50.558;7.258;2023-09-19T07:22:55;10.72;;;3.20;;
82000;SDS011;71510;50.558;7.258;2023-09-19T07:25:22;11.10;;;2.50;;
82000;SDS011;71510;50.558;7.258;2023-09-19T07:27:49;9.48;;;1.85;;
82000;SDS011;71510;50.558;7.258;2023-09-19T07:30:17;11.53;;;2.50;;
82000;SDS011;71510;50.558;7.258;2023-09-19T07:32:44;12.37;;;2.62;;
82000;SDS011;71510;50.558;7.258;2023-09-19T07:35:12;10.58;;;2.40;;
82000;SDS011;71510;50.558;7.258;2023-09-19T07:37:39;13.08;;;3.00;;
82000;SDS011;71510;50.558;7.258;2023-09-19T07:40:06;12.65;;;2.40;;
82000;SDS011;71510;50.558;7.258;2023-09-19T07:42:35;15.25;;;2.62;;
82000;SDS011;71510;50.558;7.258;2023-09-19T07:45:05;8.73;;;2.27;;
82000;SDS011;71510;50.558;7.258;2023-09-19T07:47:32;18.15;;;3.45;;
82000;SDS011;71510;50.558;7.258;2023-09-19T07:50:00;8.30;;;2.08;;
82000;SDS011;71510;50.558;7.258;2023-09-19T07:52:29;10.08;;;2.72;;
82000;SDS011;71510;50.558;7.258;2023-09-19T07:54:56;10.32;;;2.90;;
82000;SDS011;71510;50.558;7.258;2023-09-19T07:57:27;10.68;;;2.40;;
82000;SDS011;71510;50.558;7.258;2023-09-19T07:59:55;9.25;;;2.50;;
82000;SDS011;71510;50.558;7.258;2023-09-19T08:02:23;12.73;;;3.08;;
82000;SDS011;71510;50.558;7.258;2023-09-19T08:04:50;10.25;;;2.20;;
82000;SDS011;71510;50.558;7.258;2023-09-19T08:07:18;9.35;;;2.35;;
82000;SDS011;71510;50.558;7.258;2023-09-19T08:09:45;8.18;;;2.17;;
82000;SDS011;71510;50.558;7.258;2023-09-19T08:12:14;9.33;;;2.77;;
82000;SDS011;71510;50.558;7.258;2023-09-19T08:14:43;10.98;;;2.58;;
82000;SDS011;71510;50.558;7.258;2023-09-19T08:17:10;9.25;;;2.17;;
82000;SDS011;71510;50.558;7.258;2023-09-19T08:19:38;8.40;;;2.27;;
82000;SDS011;71510;50.558;7.258;2023-09-19T08:22:07;12.37;;;2.60;;
82000;SDS011;71510;50.558;7.258;2023-09-19T08:24:36;9.98;;;2.60;;
82000;SDS011;71510;50.558;7.258;2023-09-19T08:27:03;8.50;;;2.72;;
82000;SDS011;71510;50.558;7.258;2023-09-19T08:29:33;8.38;;;2.65;;
82000;SDS011;71510;50.558;7.258;2023-09-19T08:32:01;10.53;;;2.22;;
82000;SDS011;71510;50.558;7.258;2023-09-19T08:34:28;9.48;;;2.37;;
82000;SDS011;71510;50.558;7.258;2023-09-19T08:36:57;11.03;;;2.30;;
82000;SDS011;71510;50.558;7.258;2023-09-19T08:39:25;14.13;;;2.60;;
82000;SDS011;71510;50.558;7.258;2023-09-19T08:41:58;9.30;;;2.25;;
82000;SDS011;71510;50.558;7.258;2023-09-19T08:44:26;13.32;;;2.15;;
82000;SDS011;71510;50.558;7.258;2023-09-19T08:50:04;9.13;;;2.12;;
82000;SDS011;71510;50.558;7.258;2023-09-19T08:52:28;9.63;;;2.00;;
82000;SDS011;71510;50.558;7.258;2023-09-19T08:57:23;8.05;;;2.30;;
82000;SDS011;71510;50.558;7.258;2023-09-19T08:59:50;13.18;;;2.58;;
82000;SDS011;71510;50.558;7.258;2023-09-19T09:02:18;8.25;;;1.95;;
82000;SDS011;71510;50.558;7.258;2023-09-19T09:04:45;7.90;;;2.20;;
82000;SDS011;71510;50.558;7.258;2023-09-19T09:07:14;7.78;;;2.15;;
82000;SDS011;71510;50.558;7.258;2023-09-19T09:09:43;6.75;;;2.20;;
82000;SDS011;71510;50.558;7.258;2023-09-19T09:12:13;9.35;;;2.05;;
82000;SDS011;71510;50.558;7.258;2023-09-19T09:14:45;5.37;;;1.95;;
82000;SDS011;71510;50.558;7.258;2023-09-19T09:17:16;11.03;;;2.58;;
82000;SDS011;71510;50.558;7.258;2023-09-19T09:22:13;11.63;;;2.67;;
82000;SDS011;71510;50.558;7.258;2023-09-19T09:24:55;9.55;;;2.42;;
82000;SDS011;71510;50.558;7.258;2023-09-19T09:27:24;9.60;;;2.00;;
82000;SDS011;71510;50.558;7.258;2023-09-19T09:29:52;9.65;;;2.33;;
82000;SDS011;71510;50.558;7.258;2023-09-19T09:32:25;13.35;;;2.50;;
82000;SDS011;71510;50.558;7.258;2023-09-19T09:34:53;13.83;;;2.90;;
82000;SDS011;71510;50.558;7.258;2023-09-19T09:37:21;9.88;;;2.15;;
82000;SDS011;71510;50.558;7.258;2023-09-19T09:39:49;6.87;;;2.30;;
82000;SDS011;71510;50.558;7.258;2023-09-19T09:42:33;6.58;;;2.30;;
82000;SDS011;71510;50.558;7.258;2023-09-19T09:45:14;7.72;;;2.08;;
82000;SDS011;71510;50.558;7.258;2023-09-19T09:47:46;7.53;;;2.35;;
82000;SDS011;71510;50.558;7.258;2023-09-19T09:50:31;14.70;;;3.08;;
82000;SDS011;71510;50.558;7.258;2023-09-19T09:53:28;11.60;;;1.98;;
82000;SDS011;71510;50.558;7.258;2023-09-19T09:56:04;13.45;;;2.25;;
82000;SDS011;71510;50.558;7.258;2023-09-19T09:58:36;10.05;;;2.37;;
82000;SDS011;71510;50.558;7.258;2023-09-19T10:01:05;7.35;;;1.92;;
82000;SDS011;71510;50.558;7.258;2023-09-19T10:03:39;7.12;;;2.55;;
82000;SDS011;71510;50.558;7.258;2023-09-19T10:06:14;8.55;;;2.47;;
82000;SDS011;71510;50.558;7.258;2023-09-19T10:11:30;9.63;;;2.58;;
82000;SDS011;71510;50.558;7.258;2023-09-19T10:13:58;8.68;;;2.20;;
82000;SDS011;71510;50.558;7.258;2023-09-19T10:16:29;12.98;;;2.20;;
82000;SDS011;71510;50.558;7.258;2023-09-19T10:18:58;7.97;;;2.10;;
82000;SDS011;71510;50.558;7.258;2023-09-19T10:21:27;7.20;;;2.02;;
82000;SDS011;71510;50.558;7.258;2023-09-19T10:24:01;5.92;;;1.95;;
82000;SDS011;71510;50.558;7.258;2023-09-19T10:26:29;4.45;;;1.92;;
82000;SDS011;71510;50.558;7.258;2023-09-19T10:28:57;11.05;;;2.05;;
82000;SDS011;71510;50.558;7.258;2023-09-19T10:31:27;6.40;;;1.62;;
82000;SDS011;71510;50.558;7.258;2023-09-19T10:33:55;6.85;;;1.80;;
82000;SDS011;71510;50.558;7.258;2023-09-19T10:36:25;5.62;;;1.92;;
82000;SDS011;71510;50.558;7.258;2023-09-19T10:38:54;5.85;;;1.98;;
82000;SDS011;71510;50.558;7.258;2023-09-19T10:41:22;6.30;;;1.65;;
82000;SDS011;71510;50.558;7.258;2023-09-19T10:43:49;4.80;;;1.72;;
82000;SDS011;71510;50.558;7.258;2023-09-19T10:46:18;7.92;;;1.80;;
82000;SDS011;71510;50.558;7.258;2023-09-19T10:48:46;4.60;;;1.77;;
82000;SDS011;71510;50.558;7.258;2023-09-19T10:51:18;8.30;;;1.90;;
82000;SDS011;71510;50.558;7.258;2023-09-19T10:56:58;4.58;;;2.02;;
82000;SDS011;71510;50.558;7.258;2023-09-19T10:58:47;8.03;;;2.12;;
82000;SDS011;71510;50.558;7.258;2023-09-19T11:01:15;5.25;;;1.95;;
82000;SDS011;71510;50.558;7.258;2023-09-19T11:03:43;9.05;;;2.30;;
82000;SDS011;71510;50.558;7.258;2023-09-19T11:06:12;5.92;;;2.20;;
82000;SDS011;71510;50.558;7.258;2023-09-19T11:14:57;10.20;;;2.22;;
82000;SDS011;71510;50.558;7.258;2023-09-19T11:17:12;8.10;;;1.82;;
82000;SDS011;71510;50.558;7.258;2023-09-19T11:19:10;9.00;;;2.03;;
82000;SDS011;71510;50.558;7.258;2023-09-19T11:26:48;11.05;;;2.60;;
82000;SDS011;71510;50.558;7.258;2023-09-19T11:29:26;6.92;;;2.40;;
82000;SDS011;71510;50.558;7.258;2023-09-19T11:31:55;6.80;;;2.20;;
82000;SDS011;71510;50.558;7.258;2023-09-19T11:39:40;6.55;;;2.22;;
82000;SDS011;71510;50.558;7.258;2023-09-19T11:44:55;6.53;;;2.10;;
82000;SDS011;71510;50.558;7.258;2023-09-19T11:47:22;12.03;;;2.35;;
82000;SDS011;71510;50.558;7.258;2023-09-19T11:49:51;6.33;;;2.10;;
82000;SDS011;71510;50.558;7.258;2023-09-19T11:52:22;6.62;;;1.92;;
82000;SDS011;71510;50.558;7.258;2023-09-19T11:54:55;5.58;;;1.95;;
82000;SDS011;71510;50.558;7.258;2023-09-19T11:57:23;8.68;;;1.80;;
82000;SDS011;71510;50.558;7.258;2023-09-19T11:59:51;6.12;;;2.22;;
82000;SDS011;71510;50.558;7.258;2023-09-19T12:02:27;6.67;;;1.90;;
82000;SDS011;71510;50.558;7.258;2023-09-19T12:04:53;7.65;;;2.05;;
82000;SDS011;71510;50.558;7.258;2023-09-19T12:07:17;6.92;;;1.87;;
82000;SDS011;71510;50.558;7.258;2023-09-19T12:09:46;5.87;;;1.90;;
82000;SDS011;71510;50.558;7.258;2023-09-19T12:12:20;3.45;;;1.70;;
82000;SDS011;71510;50.558;7.258;2023-09-19T12:14:49;3.47;;;1.30;;
82000;SDS011;71510;50.558;7.258;2023-09-19T12:17:17;9.28;;;1.85;;
82000;SDS011;71510;50.558;7.258;2023-09-19T12:19:51;7.40;;;1.82;;
82000;SDS011;71510;50.558;7.258;2023-09-19T12:22:18;8.45;;;1.98;;
82000;SDS011;71510;50.558;7.258;2023-09-19T12:24:47;6.10;;;2.30;;
82000;SDS011;71510;50.558;7.258;2023-09-19T12:27:14;8.03;;;1.65;;
82000;SDS011;71510;50.558;7.258;2023-09-19T12:29:42;6.20;;;1.77;;
82000;SDS011;71510;50.558;7.258;2023-09-19T12:32:10;3.98;;;1.40;;
82000;SDS011;71510;50.558;7.258;2023-09-19T12:34:38;5.33;;;1.30;;
82000;SDS011;71510;50.558;7.258;2023-09-19T12:37:17;5.62;;;1.50;;
82000;SDS011;71510;50.558;7.258;2023-09-19T12:39:44;11.83;;;1.80;;
82000;SDS011;71510;50.558;7.258;2023-09-19T12:42:20;8.80;;;1.35;;
82000;SDS011;71510;50.558;7.258;2023-09-19T12:44:48;7.03;;;1.37;;
82000;SDS011;71510;50.558;7.258;2023-09-19T12:47:18;4.30;;;1.60;;
82000;SDS011;71510;50.558;7.258;2023-09-19T12:50:05;4.42;;;1.65;;
82000;SDS011;71510;50.558;7.258;2023-09-19T12:52:36;6.67;;;1.60;;
82000;SDS011;71510;50.558;7.258;2023-09-19T12:55:03;5.47;;;1.70;;
82000;SDS011;71510;50.558;7.258;2023-09-19T12:57:35;7.90;;;1.95;;
82000;SDS011;71510;50.558;7.258;2023-09-19T13:00:03;8.05;;;1.72;;
82000;SDS011;71510;50.558;7.258;2023-09-19T13:02:36;5.80;;;1.72;;
82000;SDS011;71510;50.558;7.258;2023-09-19T13:05:03;3.02;;;1.45;;
82000;SDS011;71510;50.558;7.258;2023-09-19T13:07:42;6.67;;;1.75;;
82000;SDS011;71510;50.558;7.258;2023-09-19T13:10:13;3.10;;;1.72;;
82000;SDS011;71510;50.558;7.258;2023-09-19T13:12:45;7.28;;;1.30;;
82000;SDS011;71510;50.558;7.258;2023-09-19T13:15:13;3.55;;;1.12;;
82000;SDS011;71510;50.558;7.258;2023-09-19T13:17:43;2.85;;;1.30;;
82000;SDS011;71510;50.558;7.258;2023-09-19T13:20:20;4.10;;;1.87;;
82000;SDS011;71510;50.558;7.258;2023-09-19T13:22:50;4.72;;;1.50;;
82000;SDS011;71510;50.558;7.258;2023-09-19T13:25:22;4.95;;;1.40;;
82000;SDS011;71510;50.558;7.258;2023-09-19T13:27:53;5.12;;;1.40;;
82000;SDS011;71510;50.558;7.258;2023-09-19T13:30:26;5.47;;;1.42;;
82000;SDS011;71510;50.558;7.258;2023-09-19T13:33:05;5.67;;;1.52;;
82000;SDS011;71510;50.558;7.258;2023-09-19T13:35:33;8.43;;;1.57;;
82000;SDS011;71510;50.558;7.258;2023-09-19T13:38:00;6.28;;;1.72;;
82000;SDS011;71510;50.558;7.258;2023-09-19T13:40:28;11.57;;;1.40;;
82000;SDS011;71510;50.558;7.258;2023-09-19T13:42:57;5.97;;;1.40;;
82000;SDS011;71510;50.558;7.258;2023-09-19T13:45:24;7.70;;;2.20;;
82000;SDS011;71510;50.558;7.258;2023-09-19T13:47:53;4.50;;;1.15;;
82000;SDS011;71510;50.558;7.258;2023-09-19T13:50:20;3.42;;;1.20;;
82000;SDS011;71510;50.558;7.258;2023-09-19T13:52:50;5.20;;;1.62;;
82000;SDS011;71510;50.558;7.258;2023-09-19T13:55:20;6.60;;;1.82;;
82000;SDS011;71510;50.558;7.258;2023-09-19T13:57:48;6.87;;;1.85;;
82000;SDS011;71510;50.558;7.258;2023-09-19T14:00:20;4.80;;;1.02;;
82000;SDS011;71510;50.558;7.258;2023-09-19T14:02:48;4.45;;;0.95;;
82000;SDS011;71510;50.558;7.258;2023-09-19T14:05:17;5.20;;;1.02;;
82000;SDS011;71510;50.558;7.258;2023-09-19T14:07:45;7.05;;;1.45;;
82000;SDS011;71510;50.558;7.258;2023-09-19T14:10:12;2.77;;;1.40;;
82000;SDS011;71510;50.558;7.258;2023-09-19T14:12:40;4.62;;;1.50;;
82000;SDS011;71510;50.558;7.258;2023-09-19T14:15:08;4.72;;;1.40;;
82000;SDS011;71510;50.558;7.258;2023-09-19T14:17:35;3.42;;;1.27;;
82000;SDS011;71510;50.558;7.258;2023-09-19T14:20:03;4.33;;;1.67;;
82000;SDS011;71510;50.558;7.258;2023-09-19T14:22:31;4.70;;;1.02;;
82000;SDS011;71510;50.558;7.258;2023-09-19T14:24:58;4.03;;;1.27;;
82000;SDS011;71510;50.558;7.258;2023-09-19T14:27:26;2.45;;;1.12;;
82000;SDS011;71510;50.558;7.258;2023-09-19T14:29:53;2.67;;;0.95;;
82000;SDS011;71510;50.558;7.258;2023-09-19T14:32:21;6.33;;;1.00;;
82000;SDS011;71510;50.558;7.258;2023-09-19T14:34:49;4.50;;;1.40;;
82000;SDS011;71510;50.558;7.258;2023-09-19T14:37:16;4.95;;;1.60;;
82000;SDS011;71510;50.558;7.258;2023-09-19T14:39:43;3.40;;;1.05;;
82000;SDS011;71510;50.558;7.258;2023-09-19T14:42:11;7.15;;;1.60;;
82000;SDS011;71510;50.558;7.258;2023-09-19T14:44:40;3.50;;;1.32;;
82000;SDS011;71510;50.558;7.258;2023-09-19T14:47:07;2.62;;;1.07;;
82000;SDS011;71510;50.558;7.258;2023-09-19T14:49:34;8.25;;;1.67;;
82000;SDS011;71510;50.558;7.258;2023-09-19T14:52:05;5.25;;;1.67;;
82000;SDS011;71510;50.558;7.258;2023-09-19T14:54:32;3.25;;;1.10;;
82000;SDS011;71510;50.558;7.258;2023-09-19T14:57:00;3.40;;;1.32;;
82000;SDS011;71510;50.558;7.258;2023-09-19T14:59:35;3.83;;;1.20;;
82000;SDS011;71510;50.558;7.258;2023-09-19T15:04:32;4.95;;;1.02;;
82000;SDS011;71510;50.558;7.258;2023-09-19T15:06:59;4.45;;;1.20;;
82000;SDS011;71510;50.558;7.258;2023-09-19T15:09:27;2.90;;;1.10;;
82000;SDS011;71510;50.558;7.258;2023-09-19T15:11:56;3.77;;;1.20;;
82000;SDS011;71510;50.558;7.258;2023-09-19T15:14:23;4.10;;;1.30;;
82000;SDS011;71510;50.558;7.258;2023-09-19T15:16:51;2.08;;;0.90;;
82000;SDS011;71510;50.558;7.258;2023-09-19T15:19:18;5.30;;;1.85;;
82000;SDS011;71510;50.558;7.258;2023-09-19T15:21:45;4.97;;;1.27;;
82000;SDS011;71510;50.558;7.258;2023-09-19T15:24:13;2.85;;;1.30;;
82000;SDS011;71510;50.558;7.258;2023-09-19T15:26:41;4.62;;;1.12;;
82000;SDS011;71510;50.558;7.258;2023-09-19T15:29:10;6.00;;;1.37;;
82000;SDS011;71510;50.558;7.258;2023-09-19T15:31:37;5.58;;;1.12;;
82000;SDS011;71510;50.558;7.258;2023-09-19T15:34:05;2.98;;;1.17;;
82000;SDS011;71510;50.558;7.258;2023-09-19T15:36:33;2.85;;;1.40;;
82000;SDS011;71510;50.558;7.258;2023-09-19T15:39:06;3.55;;;1.12;;
82000;SDS011;71510;50.558;7.258;2023-09-19T15:43:58;6.80;;;1.20;;
82000;SDS011;71510;50.558;7.258;2023-09-19T15:46:27;5.03;;;1.30;;